Time;durP1;ratioP1;P1;durP2;ratioP2;P2;SDS_P1;SDS_P2;PMS_P1;PMS_P2;Temp;Humidity;BMP_temperature;BMP_pressure;BME280_temperature;BME280_humidity;BME280_pressure;Samples;Min_cycle;Max_cycle;Signal;HPM_P1;HPM_P2
2021/07/20 00:00:21;;;;;;;5.70;3.10;;;16.10;99.90;;;;;;5027344;28;20655;-63
2021/07/20 00:02:51;;;;;;;8.87;3.70;;;16.20;99.90;;;;;;5027024;28;20232;-62
2021/07/20 00:05:23;;;;;;;6.83;3.50;;;16.10;99.90;;;;;;5027586;28;20242;-62
2021/07/20 00:07:53;;;;;;;4.70;3.50;;;16.10;99.90;;;;;;5027771;28;20254;-62
2021/07/20 00:10:27;;;;;;;4.80;3.67;;;16.10;99.90;;;;;;5027159;28;20260;-62
2021/07/20 00:12:59;;;;;;;6.70;3.70;;;16.10;99.90;;;;;;5027029;28;20238;-61
2021/07/20 00:15:30;;;;;;;5.70;3.57;;;16.10;99.90;;;;;;5027037;28;20236;-63
2021/07/20 00:18:05;;;;;;;5.97;3.70;;;16.00;99.90;;;;;;5027306;28;20299;-62
2021/07/20 00:20:35;;;;;;;6.67;3.60;;;16.10;99.90;;;;;;5026377;28;20232;-62
2021/07/20 00:23:05;;;;;;;4.87;3.60;;;16.00;99.90;;;;;;5027196;28;20236;-63
2021/07/20 00:25:34;;;;;;;5.90;3.57;;;16.00;99.90;;;;;;5027539;28;20240;-62
2021/07/20 00:28:04;;;;;;;3.60;3.27;;;16.00;99.90;;;;;;5027531;28;20250;-62
2021/07/20 00:30:36;;;;;;;4.20;3.17;;;15.90;99.90;;;;;;5026980;28;20558;-62
2021/07/20 00:33:06;;;;;;;5.13;3.70;;;16.00;99.90;;;;;;5026444;28;20236;-62
2021/07/20 00:35:35;;;;;;;6.80;3.80;;;15.90;99.90;;;;;;5026909;28;20320;-63
2021/07/20 00:38:05;;;;;;;4.30;3.10;;;15.90;99.90;;;;;;5027234;28;20324;-63
2021/07/20 00:40:36;;;;;;;4.83;3.60;;;15.90;99.90;;;;;;5025747;28;20674;-62
2021/07/20 00:43:08;;;;;;;4.67;3.30;;;15.90;99.90;;;;;;5036417;28;20600;-62
2021/07/20 00:45:41;;;;;;;5.00;3.57;;;15.80;99.90;;;;;;5042300;28;20739;-61
2021/07/20 00:48:12;;;;;;;4.43;3.73;;;15.80;99.90;;;;;;5069050;28;20232;-62
2021/07/20 00:50:44;;;;;;;6.07;3.40;;;15.80;99.90;;;;;;5044687;28;20293;-62
2021/07/20 00:53:16;;;;;;;4.87;3.53;;;15.80;99.90;;;;;;5046983;28;20362;-62
2021/07/20 00:56:08;;;;;;;5.83;3.47;;;15.80;99.90;;;;;;5037981;28;20305;-62
2021/07/20 00:58:41;;;;;;;6.17;3.70;;;15.70;99.90;;;;;;5046856;28;20247;-62
2021/07/20 01:01:13;;;;;;;5.23;3.70;;;15.70;99.90;;;;;;5046076;28;20319;-61
2021/07/20 01:03:47;;;;;;;6.87;3.90;;;15.70;99.90;;;;;;5046477;28;20638;-61
2021/07/20 01:06:22;;;;;;;5.20;3.53;;;15.70;99.90;;;;;;5045183;28;20239;-62
2021/07/20 01:08:53;;;;;;;5.23;3.57;;;15.70;99.90;;;;;;5045500;28;20326;-62
2021/07/20 01:11:25;;;;;;;4.97;3.63;;;15.60;99.90;;;;;;5045981;28;20240;-62
2021/07/20 01:13:56;;;;;;;6.33;3.80;;;15.60;99.90;;;;;;5045362;28;20235;-62
2021/07/20 01:16:29;;;;;;;4.13;3.50;;;15.60;99.90;;;;;;5049386;28;20232;-63
2021/07/20 01:18:59;;;;;;;5.07;4.10;;;15.60;99.90;;;;;;5061798;28;20303;-62
2021/07/20 01:21:29;;;;;;;4.47;4.07;;;15.50;99.90;;;;;;5061497;28;20236;-63
2021/07/20 01:24:01;;;;;;;4.37;3.67;;;15.50;99.90;;;;;;5050089;28;20227;-63
2021/07/20 01:26:30;;;;;;;4.87;3.63;;;15.50;99.90;;;;;;5044748;28;20232;-62
2021/07/20 01:29:02;;;;;;;4.73;3.90;;;15.50;99.90;;;;;;5045476;28;20240;-62
2021/07/20 01:31:35;;;;;;;4.60;3.87;;;15.50;99.90;;;;;;5046804;28;20235;-62
2021/07/20 01:34:12;;;;;;;5.30;3.40;;;15.50;99.90;;;;;;5048455;28;20699;-63
2021/07/20 01:36:48;;;;;;;4.00;3.53;;;15.40;99.90;;;;;;5048072;28;20230;-62
2021/07/20 01:39:24;;;;;;;5.77;4.10;;;15.40;99.90;;;;;;5045247;28;20240;-62
2021/07/20 01:41:55;;;;;;;5.40;4.00;;;15.40;99.90;;;;;;5049129;28;20238;-61
2021/07/20 01:44:27;;;;;;;4.73;3.90;;;15.40;99.90;;;;;;5082498;28;20244;-63
2021/07/20 01:46:57;;;;;;;8.03;3.70;;;15.30;99.90;;;;;;5081783;28;20240;-63
2021/07/20 01:49:29;;;;;;;6.23;3.77;;;15.40;99.90;;;;;;5035288;28;20671;-62
2021/07/20 01:52:04;;;;;;;4.70;3.80;;;15.30;99.90;;;;;;5044334;28;20263;-63
2021/07/20 01:54:38;;;;;;;5.73;4.00;;;15.30;99.90;;;;;;5045363;28;20697;-63
2021/07/20 01:57:07;;;;;;;4.13;3.60;;;15.30;99.90;;;;;;5049643;28;20511;-62
2021/07/20 01:59:57;;;;;;;4.40;3.70;;;15.30;99.90;;;;;;5032804;28;20235;-63
2021/07/20 02:03:10;;;;;;;5.93;3.63;;;15.30;99.90;;;;;;5048852;28;20726;-62
2021/07/20 02:08:34;;;;;;;3.83;3.43;;;15.20;99.90;;;;;;5049560;28;20259;-61
2021/07/20 02:11:10;;;;;;;5.13;3.80;;;15.20;99.90;;;;;;5060723;28;20238;-63
2021/07/20 02:14:00;;;;;;;4.20;3.80;;;15.30;99.90;;;;;;5060836;28;20251;-62
2021/07/20 02:16:50;;;;;;;7.63;3.83;;;15.20;99.90;;;;;;5067866;28;20368;-63
2021/07/20 02:19:22;;;;;;;4.30;3.87;;;15.10;99.90;;;;;;5069345;28;20326;-63
2021/07/20 02:22:00;;;;;;;4.77;3.70;;;15.10;99.90;;;;;;5067350;28;20231;-62
2021/07/20 02:24:30;;;;;;;4.67;4.13;;;15.10;99.90;;;;;;5059159;28;20685;-62
2021/07/20 02:27:01;;;;;;;6.03;4.13;;;15.00;99.90;;;;;;5044442;28;20236;-62
2021/07/20 02:29:32;;;;;;;4.97;3.83;;;15.10;99.90;;;;;;5044787;28;20324;-61
2021/07/20 02:32:05;;;;;;;5.07;3.60;;;15.10;99.90;;;;;;5027130;28;20244;-61
2021/07/20 02:34:37;;;;;;;5.13;3.90;;;15.10;99.90;;;;;;5038370;28;20297;-62
2021/07/20 02:37:06;;;;;;;5.33;4.10;;;15.10;99.90;;;;;;5047369;28;20254;-62
2021/07/20 02:39:37;;;;;;;5.07;4.00;;;15.10;99.90;;;;;;5047026;28;20254;-62
2021/07/20 02:42:09;;;;;;;4.03;3.63;;;15.10;99.90;;;;;;5046879;28;20339;-63
2021/07/20 02:44:39;;;;;;;4.40;3.27;;;15.10;99.90;;;;;;5047548;28;20236;-63
2021/07/20 02:47:09;;;;;;;4.97;3.60;;;15.10;99.90;;;;;;5067428;28;20227;-61
2021/07/20 02:49:39;;;;;;;4.87;3.90;;;15.10;99.90;;;;;;5068611;28;20235;-61
2021/07/20 02:52:09;;;;;;;5.10;4.23;;;15.10;99.90;;;;;;5066479;28;20242;-62
2021/07/20 02:54:41;;;;;;;4.63;3.60;;;15.10;99.90;;;;;;5056058;28;20239;-62
2021/07/20 02:57:16;;;;;;;5.27;3.77;;;15.00;99.90;;;;;;5067172;28;20718;-62
2021/07/20 02:59:52;;;;;;;4.30;3.57;;;15.00;99.90;;;;;;5064378;28;20234;-62
2021/07/20 03:02:37;;;;;;;5.50;3.90;;;14.90;99.90;;;;;;5045841;28;20290;-62
2021/07/20 03:05:07;;;;;;;4.53;3.50;;;14.90;99.90;;;;;;5046456;28;20236;-61
2021/07/20 03:07:40;;;;;;;5.60;3.83;;;14.90;99.90;;;;;;5046642;28;20703;-62
2021/07/20 03:10:11;;;;;;;3.57;3.27;;;14.90;99.90;;;;;;5051795;28;20285;-63
2021/07/20 03:12:46;;;;;;;5.50;3.70;;;14.90;99.90;;;;;;5066317;28;20246;-62
2021/07/20 03:15:15;;;;;;;4.20;3.30;;;14.90;99.90;;;;;;5050717;28;20330;-62
2021/07/20 03:17:55;;;;;;;5.87;3.60;;;14.90;99.90;;;;;;5048050;28;20244;-62
2021/07/20 03:20:26;;;;;;;4.23;3.47;;;14.90;99.90;;;;;;5046164;28;20569;-62
2021/07/20 03:22:56;;;;;;;5.37;3.60;;;15.00;99.90;;;;;;5046497;28;20266;-61
2021/07/20 03:25:25;;;;;;;4.93;3.90;;;15.10;99.90;;;;;;5046207;28;20255;-61
2021/07/20 03:27:56;;;;;;;5.33;3.80;;;15.10;99.90;;;;;;5046396;28;20777;-61
2021/07/20 03:30:32;;;;;;;4.07;3.60;;;15.00;99.90;;;;;;5053399;28;20237;-62
2021/07/20 03:33:05;;;;;;;5.57;3.40;;;15.00;99.90;;;;;;5066114;28;20261;-61
2021/07/20 03:35:43;;;;;;;4.43;3.50;;;15.10;99.90;;;;;;5046531;28;20254;-62
2021/07/20 03:38:13;;;;;;;5.00;3.93;;;15.10;99.90;;;;;;5046225;28;20763;-62
2021/07/20 03:40:45;;;;;;;5.43;3.87;;;15.10;99.90;;;;;;5045270;28;20857;-62
2021/07/20 03:43:17;;;;;;;6.60;4.47;;;15.10;99.90;;;;;;5047426;28;20232;-62
2021/07/20 03:45:46;;;;;;;4.67;3.80;;;15.10;99.90;;;;;;5045680;28;20738;-62
2021/07/20 03:48:15;;;;;;;6.13;3.97;;;15.20;99.90;;;;;;5046060;28;20286;-62
2021/07/20 03:50:54;;;;;;;4.60;4.20;;;15.30;99.90;;;;;;5044997;28;20641;-63
2021/07/20 03:53:23;;;;;;;6.97;4.23;;;15.30;99.90;;;;;;5046983;28;20239;-63
2021/07/20 03:55:56;;;;;;;4.43;3.93;;;15.40;99.90;;;;;;5045887;28;20231;-61
2021/07/20 03:58:26;;;;;;;4.70;3.67;;;15.40;99.90;;;;;;5045684;28;20243;-62
2021/07/20 04:01:01;;;;;;;6.13;4.03;;;15.40;99.90;;;;;;5042988;28;20251;-62
2021/07/20 04:03:33;;;;;;;4.70;4.17;;;15.40;99.90;;;;;;5045729;28;20726;-63
2021/07/20 04:06:09;;;;;;;4.80;3.70;;;15.30;99.90;;;;;;5029612;28;20696;-62
2021/07/20 04:08:48;;;;;;;5.93;4.53;;;15.40;99.90;;;;;;5040368;28;20235;-63
2021/07/20 04:11:17;;;;;;;5.57;4.20;;;15.50;99.90;;;;;;5045735;28;20246;-63
2021/07/20 04:13:53;;;;;;;4.70;4.17;;;15.40;99.90;;;;;;5045585;28;20248;-62
2021/07/20 04:16:28;;;;;;;7.87;4.20;;;15.40;99.90;;;;;;5045217;28;20231;-62
2021/07/20 04:18:57;;;;;;;6.00;4.03;;;15.30;99.90;;;;;;5047325;28;20235;-62
2021/07/20 04:21:45;;;;;;;5.83;4.23;;;15.30;99.90;;;;;;5046310;28;20300;-62
2021/07/20 04:24:15;;;;;;;5.77;4.07;;;15.50;99.90;;;;;;5045264;28;20251;-63
2021/07/20 04:26:46;;;;;;;9.87;4.70;;;15.60;99.90;;;;;;5045220;28;20634;-62
2021/07/20 04:29:16;;;;;;;8.13;5.33;;;15.60;99.90;;;;;;5045576;28;20467;-62
2021/07/20 04:31:48;;;;;;;5.93;4.33;;;15.70;99.90;;;;;;5054351;28;20232;-62
2021/07/20 04:34:17;;;;;;;8.23;5.40;;;15.70;99.90;;;;;;5062135;28;20290;-62
2021/07/20 04:37:07;;;;;;;4.83;4.37;;;15.70;99.90;;;;;;5046456;28;20254;-62
2021/07/20 04:39:41;;;;;;;10.63;5.03;;;15.60;99.90;;;;;;5044852;28;20235;-62
2021/07/20 04:42:14;;;;;;;6.20;4.30;;;15.70;99.90;;;;;;5044056;28;20227;-62
2021/07/20 04:44:44;;;;;;;7.10;4.70;;;15.70;99.90;;;;;;5044796;28;20238;-62
2021/07/20 04:47:20;;;;;;;7.13;4.73;;;15.70;99.90;;;;;;5044651;28;20235;-62
2021/07/20 04:49:53;;;;;;;8.47;4.17;;;15.70;99.90;;;;;;5047559;28;20249;-62
2021/07/20 04:52:21;;;;;;;5.50;4.23;;;15.70;99.90;;;;;;5050135;28;20247;-62
2021/07/20 04:54:50;;;;;;;5.60;4.97;;;15.70;99.90;;;;;;5043515;28;20243;-63
2021/07/20 04:57:19;;;;;;;8.17;4.90;;;15.70;99.90;;;;;;5044763;28;20231;-62
2021/07/20 04:59:50;;;;;;;5.20;4.30;;;15.80;99.90;;;;;;5044016;28;20224;-62
2021/07/20 05:02:19;;;;;;;6.07;4.20;;;15.90;99.90;;;;;;5053985;28;20301;-63
2021/07/20 05:04:53;;;;;;;5.87;4.30;;;15.90;99.90;;;;;;5055556;28;20239;-63
2021/07/20 05:07:23;;;;;;;6.20;4.00;;;16.00;99.90;;;;;;5049572;28;20699;-62
2021/07/20 05:09:57;;;;;;;7.37;4.70;;;15.90;99.90;;;;;;5051973;28;20653;-62
2021/07/20 05:12:29;;;;;;;7.87;4.33;;;16.00;99.90;;;;;;5042409;28;20256;-62
2021/07/20 05:15:08;;;;;;;6.57;4.67;;;16.10;99.90;;;;;;5037986;28;20285;-62
2021/07/20 05:17:40;;;;;;;5.97;4.50;;;16.30;99.90;;;;;;5049519;28;20239;-65
2021/07/20 05:20:13;;;;;;;7.73;5.10;;;16.20;99.90;;;;;;5046614;28;20251;-63
2021/07/20 05:23:02;;;;;;;5.93;4.17;;;16.10;99.90;;;;;;5029356;28;20236;-63
2021/07/20 05:25:31;;;;;;;7.50;4.53;;;16.20;99.90;;;;;;5036868;28;20301;-64
2021/07/20 05:28:01;;;;;;;6.17;4.70;;;16.20;99.90;;;;;;5049515;28;20318;-64
2021/07/20 05:30:33;;;;;;;6.07;4.37;;;16.20;99.90;;;;;;5065711;28;20623;-64
2021/07/20 05:33:04;;;;;;;5.63;4.33;;;16.20;99.90;;;;;;5040753;28;20251;-63
2021/07/20 05:35:42;;;;;;;8.50;4.33;;;16.10;99.90;;;;;;5045939;28;20593;-63
2021/07/20 05:38:10;;;;;;;5.57;4.70;;;16.10;99.90;;;;;;5047521;28;20231;-64
2021/07/20 05:40:43;;;;;;;10.40;4.87;;;16.20;99.90;;;;;;5050554;28;20232;-65
2021/07/20 05:43:13;;;;;;;6.97;4.70;;;16.20;99.90;;;;;;5048112;28;20235;-63
2021/07/20 05:45:44;;;;;;;6.17;4.47;;;16.20;99.90;;;;;;5047746;28;20243;-65
2021/07/20 05:48:19;;;;;;;9.70;4.60;;;16.20;99.90;;;;;;5047680;28;20232;-65
2021/07/20 05:50:51;;;;;;;8.63;4.90;;;16.20;99.90;;;;;;5048001;28;20262;-63
2021/07/20 05:53:43;;;;;;;5.97;4.03;;;16.20;99.90;;;;;;5050056;28;20629;-63
2021/07/20 05:56:31;;;;;;;7.40;4.63;;;16.30;99.90;;;;;;5049409;28;20599;-65
2021/07/20 05:59:18;;;;;;;6.37;4.27;;;16.40;99.90;;;;;;5027721;28;20244;-63
2021/07/20 06:01:52;;;;;;;7.77;5.17;;;16.50;99.90;;;;;;5046988;28;20624;-63
2021/07/20 06:04:22;;;;;;;14.97;4.73;;;16.60;99.90;;;;;;5049247;28;20293;-63
2021/07/20 06:06:51;;;;;;;5.57;4.47;;;16.60;99.90;;;;;;5066111;28;20266;-64
2021/07/20 06:09:20;;;;;;;6.77;4.63;;;16.70;99.90;;;;;;5049234;28;20319;-63
2021/07/20 06:11:50;;;;;;;8.10;4.57;;;16.70;99.90;;;;;;5048139;28;20231;-63
2021/07/20 06:14:19;;;;;;;7.73;4.43;;;16.80;99.90;;;;;;5049364;28;20647;-64
2021/07/20 06:16:48;;;;;;;7.03;4.40;;;16.90;99.90;;;;;;5047800;28;20717;-64
2021/07/20 06:19:17;;;;;;;7.03;3.90;;;16.90;99.90;;;;;;5049369;28;20700;-63
2021/07/20 06:21:47;;;;;;;5.97;3.80;;;16.90;99.90;;;;;;5048125;28;20246;-64
2021/07/20 06:24:23;;;;;;;5.37;4.03;;;16.90;99.90;;;;;;5047442;28;20240;-64
2021/07/20 06:26:52;;;;;;;5.83;4.20;;;17.00;99.90;;;;;;5048793;28;20232;-64
2021/07/20 06:29:23;;;;;;;6.77;3.90;;;17.00;99.90;;;;;;5048815;28;20243;-65
2021/07/20 06:31:54;;;;;;;5.13;3.97;;;17.00;99.90;;;;;;5047893;28;20244;-63
2021/07/20 06:34:24;;;;;;;4.90;3.97;;;17.00;99.90;;;;;;5042585;28;20574;-65
2021/07/20 06:36:54;;;;;;;6.73;4.10;;;17.00;99.90;;;;;;5065871;28;20234;-65
2021/07/20 06:39:23;;;;;;;5.50;3.83;;;17.00;99.90;;;;;;5068851;28;20246;-63
2021/07/20 06:41:51;;;;;;;6.37;4.23;;;17.00;99.90;;;;;;5041403;28;20253;-64
2021/07/20 06:44:20;;;;;;;4.73;3.87;;;17.00;99.90;;;;;;5038358;28;20588;-64
2021/07/20 06:46:49;;;;;;;7.10;3.90;;;17.00;99.90;;;;;;5043499;28;20233;-64
2021/07/20 06:49:21;;;;;;;4.53;4.03;;;17.10;99.90;;;;;;5038085;28;20243;-63
2021/07/20 06:51:49;;;;;;;6.10;4.20;;;17.10;99.90;;;;;;5026140;28;20286;-65
2021/07/20 06:54:17;;;;;;;5.73;4.07;;;17.10;99.90;;;;;;5027170;28;20230;-64
2021/07/20 06:56:49;;;;;;;8.03;4.00;;;17.20;99.90;;;;;;5025788;28;20236;-63
2021/07/20 06:59:20;;;;;;;7.37;3.70;;;17.30;99.90;;;;;;5026688;28;20696;-64
2021/07/20 07:01:50;;;;;;;6.60;3.80;;;17.30;99.90;;;;;;5025158;28;20242;-63
2021/07/20 07:04:25;;;;;;;8.10;4.50;;;17.40;99.90;;;;;;5045290;28;20290;-64
2021/07/20 07:06:57;;;;;;;4.17;3.17;;;17.40;99.90;;;;;;5025113;28;20301;-64
2021/07/20 07:09:27;;;;;;;6.93;3.90;;;17.40;99.90;;;;;;5024527;28;20298;-64
2021/07/20 07:11:55;;;;;;;5.37;3.70;;;17.50;99.90;;;;;;5022892;28;20251;-64
2021/07/20 07:14:24;;;;;;;5.73;3.90;;;17.50;99.90;;;;;;5024365;28;20265;-65
2021/07/20 07:16:54;;;;;;;7.27;3.80;;;17.50;99.90;;;;;;5023929;28;20237;-64
2021/07/20 07:19:24;;;;;;;5.97;3.93;;;17.60;99.90;;;;;;5023800;28;20323;-63
2021/07/20 07:21:53;;;;;;;3.40;3.10;;;17.60;99.90;;;;;;5042353;28;20258;-64
2021/07/20 07:24:23;;;;;;;4.20;3.30;;;17.60;99.90;;;;;;5043547;28;21044;-64
2021/07/20 07:26:54;;;;;;;5.63;3.37;;;17.60;99.90;;;;;;5024432;28;20311;-64
2021/07/20 07:29:27;;;;;;;5.13;3.20;;;17.60;99.90;;;;;;5020915;28;20235;-64
2021/07/20 07:31:56;;;;;;;6.00;3.77;;;17.60;99.90;;;;;;5022413;28;20257;-64
2021/07/20 07:34:26;;;;;;;5.43;3.40;;;17.60;99.90;;;;;;5023340;28;20741;-65
2021/07/20 07:36:55;;;;;;;4.10;3.30;;;17.60;99.90;;;;;;5024189;28;20248;-65
2021/07/20 07:39:25;;;;;;;3.90;3.33;;;17.70;99.90;;;;;;5023255;28;20291;-64
2021/07/20 07:41:54;;;;;;;6.20;3.10;;;17.80;99.90;;;;;;5022498;28;20811;-62
2021/07/20 07:44:24;;;;;;;6.30;3.80;;;17.90;99.90;;;;;;5025705;28;20367;-64
2021/07/20 07:46:55;;;;;;;5.13;3.53;;;17.90;99.90;;;;;;5045003;28;20316;-63
2021/07/20 07:49:25;;;;;;;5.30;3.47;;;18.00;99.90;;;;;;5045489;28;20306;-65
2021/07/20 07:51:54;;;;;;;6.53;3.30;;;18.20;99.90;;;;;;5023050;28;20749;-64
2021/07/20 07:54:23;;;;;;;6.90;3.50;;;18.30;99.90;;;;;;5022986;28;20241;-65
2021/07/20 08:00:59;;;;;;;4.97;3.60;;;18.50;99.90;;;;;;5039545;28;20322;-64
2021/07/20 08:03:29;;;;;;;7.23;3.80;;;18.70;99.90;;;;;;5043776;28;20290;-63
2021/07/20 08:06:00;;;;;;;5.33;3.63;;;19.10;99.90;;;;;;5044109;28;20244;-64
2021/07/20 08:08:29;;;;;;;8.77;4.40;;;20.00;99.90;;;;;;5044438;28;20266;-63
2021/07/20 08:10:58;;;;;;;7.37;4.30;;;20.90;99.90;;;;;;5043649;28;20249;-65
2021/07/20 08:13:27;;;;;;;4.87;4.03;;;21.40;99.90;;;;;;5029990;28;20247;-66
2021/07/20 08:15:56;;;;;;;7.70;4.65;;;22.00;99.90;;;;;;974654;28;10001928;-64
2021/07/20 08:18:26;;;;;;;5.83;4.63;;;22.70;99.90;;;;;;5024671;28;20247;-64
2021/07/20 08:21:02;;;;;;;7.27;4.83;;;22.70;99.90;;;;;;5046554;28;20243;-64
2021/07/20 08:23:32;;;;;;;6.10;4.77;;;22.40;99.90;;;;;;5064121;28;20233;-64
2021/07/20 08:26:06;;;;;;;6.33;5.00;;;22.10;99.90;;;;;;5051906;28;20553;-63
2021/07/20 08:28:39;;;;;;;7.90;5.20;;;22.00;99.90;;;;;;5044128;28;20653;-64
2021/07/20 08:31:09;;;;;;;6.70;4.80;;;21.90;99.90;;;;;;5056548;28;20258;-64
2021/07/20 08:33:51;;;;;;;7.73;5.10;;;21.90;99.90;;;;;;5064027;28;20247;-63
2021/07/20 08:36:21;;;;;;;6.57;4.87;;;21.90;99.90;;;;;;5049162;28;20591;-64
2021/07/20 08:38:56;;;;;;;6.83;5.17;;;21.70;99.90;;;;;;5044127;28;20722;-64
2021/07/20 08:41:44;;;;;;;6.50;4.87;;;21.60;99.90;;;;;;5062716;28;20748;-64
2021/07/20 08:44:27;;;;;;;8.03;5.13;;;21.50;99.90;;;;;;5067911;28;20245;-64
2021/07/20 08:47:04;;;;;;;6.70;5.20;;;21.50;99.90;;;;;;5066909;28;20241;-65
2021/07/20 08:50:03;;;;;;;6.27;5.03;;;21.50;99.90;;;;;;5045810;28;20235;-64
2021/07/20 08:52:36;;;;;;;5.43;4.63;;;21.30;99.90;;;;;;5011942;28;20323;-65
2021/07/20 08:55:11;;;;;;;7.83;4.60;;;21.40;99.90;;;;;;5037505;28;20250;-64
2021/07/20 08:57:46;;;;;;;5.57;4.83;;;21.30;99.90;;;;;;5067454;28;20246;-63
2021/07/20 09:00:18;;;;;;;8.00;5.20;;;21.20;99.90;;;;;;5061550;28;20272;-64
2021/07/20 09:02:51;;;;;;;7.63;4.90;;;21.20;99.90;;;;;;5047214;28;20238;-65
2021/07/20 09:05:26;;;;;;;6.33;4.80;;;21.30;99.90;;;;;;5047668;28;20699;-64
2021/07/20 09:08:01;;;;;;;6.50;4.97;;;21.40;99.90;;;;;;5047721;28;20324;-65
2021/07/20 09:10:39;;;;;;;7.17;4.93;;;21.30;99.90;;;;;;5047219;28;20242;-64
2021/07/20 09:13:13;;;;;;;5.53;4.60;;;21.40;99.90;;;;;;5047152;28;20321;-65
2021/07/20 09:15:48;;;;;;;5.97;4.80;;;21.80;99.90;;;;;;5056364;28;20261;-64
2021/07/20 09:18:22;;;;;;;6.70;4.83;;;22.20;99.90;;;;;;5067547;28;20252;-65
2021/07/20 09:20:55;;;;;;;6.23;4.63;;;22.60;99.90;;;;;;5056450;28;20532;-64
2021/07/20 09:23:27;;;;;;;6.97;4.83;;;23.00;99.90;;;;;;5047376;28;20255;-64
2021/07/20 09:26:04;;;;;;;7.90;4.70;;;23.10;99.90;;;;;;5047263;28;20264;-64
2021/07/20 09:28:39;;;;;;;6.27;4.70;;;23.10;99.90;;;;;;5046953;28;20235;-65
2021/07/20 09:31:13;;;;;;;5.57;4.70;;;23.40;99.90;;;;;;5059352;28;20243;-66
2021/07/20 09:33:49;;;;;;;6.27;4.40;;;23.50;99.90;;;;;;5066826;28;20293;-64
2021/07/20 09:36:24;;;;;;;9.07;4.97;;;23.50;99.90;;;;;;5064075;28;20795;-62
2021/07/20 09:39:35;;;;;;;13.53;5.50;;;23.30;99.90;;;;;;5066729;28;20247;-63
2021/07/20 09:42:14;;;;;;;16.37;5.57;;;22.90;99.90;;;;;;5026472;28;20251;-64
2021/07/20 09:44:45;;;;;;;42.73;6.80;;;22.80;99.90;;;;;;5028103;28;20282;-64
2021/07/20 09:47:24;;;;;;;15.17;5.53;;;22.80;99.90;;;;;;5046999;28;20232;-64
2021/07/20 09:50:07;;;;;;;8.00;4.80;;;22.70;99.90;;;;;;5046650;28;20695;-64
2021/07/20 09:53:09;;;;;;;10.87;5.00;;;22.60;99.90;;;;;;5045077;28;20240;-64
2021/07/20 09:55:53;;;;;;;7.00;4.73;;;22.90;99.90;;;;;;5035459;28;20266;-62
2021/07/20 09:58:31;;;;;;;6.27;4.97;;;24.10;99.90;;;;;;5043520;28;20297;-64
2021/07/20 10:01:14;;;;;;;7.70;5.13;;;24.60;99.90;;;;;;5053309;28;20238;-64
2021/07/20 10:03:52;;;;;;;6.87;5.10;;;24.80;99.90;;;;;;5035709;28;20239;-64
2021/07/20 10:06:29;;;;;;;6.50;5.03;;;24.80;99.90;;;;;;5038796;28;20246;-64
2021/07/20 10:09:02;;;;;;;5.83;4.87;;;25.00;99.90;;;;;;5037476;28;20525;-66
2021/07/20 10:11:37;;;;;;;8.00;4.83;;;25.00;99.90;;;;;;5034257;28;20886;-66
2021/07/20 10:14:22;;;;;;;4.93;4.40;;;25.20;99.90;;;;;;5035522;28;20293;-65
2021/07/20 10:16:58;;;;;;;6.70;4.97;;;25.20;99.90;;;;;;5035842;28;20595;-65
2021/07/20 10:19:35;;;;;;;6.20;5.00;;;25.20;99.90;;;;;;5034542;28;20238;-65
2021/07/20 10:22:07;;;;;;;6.97;4.87;;;25.60;99.90;;;;;;5037594;28;20254;-65
2021/07/20 10:24:43;;;;;;;5.30;4.70;;;25.70;99.90;;;;;;5042474;28;20623;-65
2021/07/20 10:27:15;;;;;;;6.30;4.90;;;25.80;99.90;;;;;;5041607;28;20315;-64
2021/07/20 10:29:54;;;;;;;6.13;4.67;;;26.50;99.90;;;;;;5042334;28;20706;-65
2021/07/20 10:32:29;;;;;;;5.13;4.60;;;26.60;99.90;;;;;;5026328;28;20269;-64
2021/07/20 10:35:03;;;;;;;6.50;5.17;;;26.90;99.90;;;;;;5022162;28;20245;-64
2021/07/20 10:37:36;;;;;;;7.87;5.17;;;26.90;99.90;;;;;;5025160;28;20305;-65
2021/07/20 10:40:08;;;;;;;5.43;4.80;;;26.40;99.90;;;;;;5041778;28;20900;-65
2021/07/20 10:42:42;;;;;;;5.37;4.60;;;26.00;99.90;;;;;;5029525;28;20318;-66
2021/07/20 10:45:14;;;;;;;6.27;5.07;;;25.60;99.90;;;;;;5024044;28;20322;-64
2021/07/20 10:47:47;;;;;;;5.30;4.80;;;25.30;99.90;;;;;;5019101;28;20262;-65
2021/07/20 10:50:20;;;;;;;6.57;5.40;;;24.90;99.90;;;;;;5030995;28;20240;-65
2021/07/20 10:53:10;;;;;;;6.37;5.30;;;24.60;99.90;;;;;;5026695;28;20276;-64
2021/07/20 10:55:50;;;;;;;7.83;5.50;;;24.70;99.90;;;;;;5024451;28;20266;-64
2021/07/20 10:58:28;;;;;;;6.73;5.13;;;24.80;99.90;;;;;;5016587;28;20250;-64
2021/07/20 11:01:07;;;;;;;6.87;5.60;;;25.00;99.90;;;;;;5019379;28;20273;-63
2021/07/20 11:03:45;;;;;;;6.27;5.37;;;25.20;99.90;;;;;;5014917;28;20795;-65
2021/07/20 11:06:17;;;;;;;5.43;4.67;;;25.30;99.90;;;;;;5012997;28;20278;-65
2021/07/20 11:08:50;;;;;;;6.37;5.40;;;25.00;99.90;;;;;;5005922;28;20341;-65
2021/07/20 11:11:23;;;;;;;6.60;5.30;;;24.90;99.90;;;;;;5042632;28;20329;-65
2021/07/20 11:13:55;;;;;;;7.37;5.50;;;24.60;99.90;;;;;;5045354;28;20238;-64
2021/07/20 11:16:25;;;;;;;6.70;5.83;;;24.40;99.90;;;;;;5045266;28;20244;-64
2021/07/20 11:18:55;;;;;;;7.47;5.33;;;24.10;99.90;;;;;;5045012;28;20617;-65
2021/07/20 11:21:27;;;;;;;6.97;5.53;;;23.90;99.90;;;;;;5044770;28;20241;-65
2021/07/20 11:23:57;;;;;;;6.43;5.80;;;23.80;99.90;;;;;;5045186;28;20245;-64
2021/07/20 11:26:29;;;;;;;7.70;5.80;;;23.40;99.90;;;;;;5046027;28;20247;-65
2021/07/20 11:28:57;;;;;;;7.00;5.57;;;23.10;99.90;;;;;;5044028;28;20235;-65
2021/07/20 11:31:33;;;;;;;6.83;6.00;;;22.70;99.90;;;;;;5042526;28;20782;-64
2021/07/20 11:34:07;;;;;;;7.07;5.80;;;22.90;99.90;;;;;;5042084;28;20289;-65
2021/07/20 11:36:39;;;;;;;7.60;6.17;;;23.20;99.90;;;;;;5043179;28;20675;-64
2021/07/20 11:39:11;;;;;;;10.67;6.73;;;23.40;99.90;;;;;;5043656;28;20704;-64
2021/07/20 11:41:45;;;;;;;6.43;5.83;;;23.20;99.90;;;;;;5042944;28;20239;-64
2021/07/20 11:44:23;;;;;;;7.80;6.27;;;23.00;99.90;;;;;;5043682;28;20239;-64
2021/07/20 11:46:59;;;;;;;8.37;6.43;;;22.80;99.90;;;;;;5062480;28;20773;-64
2021/07/20 11:49:38;;;;;;;7.13;6.07;;;22.80;99.90;;;;;;5063011;28;20303;-65
2021/07/20 11:52:11;;;;;;;7.87;6.50;;;22.80;99.90;;;;;;5023188;28;20244;-64
2021/07/20 11:54:53;;;;;;;7.00;6.20;;;22.70;99.90;;;;;;5026014;28;20247;-65
2021/07/20 11:58:06;;;;;;;8.63;6.87;;;22.80;99.90;;;;;;5063264;28;20269;-65
2021/07/20 12:01:24;;;;;;;8.07;6.43;;;22.50;99.90;;;;;;5036973;28;20245;-65
2021/07/20 12:04:16;;;;;;;7.53;6.73;;;22.60;99.90;;;;;;5009736;28;20329;-65
2021/07/20 12:06:57;;;;;;;8.00;5.90;;;23.00;99.90;;;;;;5048101;28;20773;-66
2021/07/20 12:09:36;;;;;;;9.63;6.47;;;23.10;99.90;;;;;;5025541;28;20612;-66
2021/07/20 12:12:44;;;;;;;8.10;6.40;;;23.00;99.90;;;;;;5028498;28;20334;-65
2021/07/20 12:15:13;;;;;;;7.47;6.70;;;23.00;99.90;;;;;;5039156;28;20293;-64
2021/07/20 12:17:41;;;;;;;7.27;6.37;;;23.20;99.90;;;;;;5035385;28;20231;-65
2021/07/20 12:20:13;;;;;;;8.90;6.63;;;23.30;99.90;;;;;;5039759;28;20271;-64
2021/07/20 12:22:42;;;;;;;7.23;6.53;;;23.40;99.90;;;;;;5039979;28;20930;-65
2021/07/20 12:25:12;;;;;;;7.20;6.30;;;23.70;99.90;;;;;;5037702;28;20280;-65
2021/07/20 12:27:41;;;;;;;7.57;6.50;;;23.80;99.90;;;;;;5031283;28;21241;-65
2021/07/20 12:30:12;;;;;;;8.10;7.27;;;23.80;99.90;;;;;;5037622;28;20549;-64
2021/07/20 12:32:42;;;;;;;8.03;6.60;;;23.60;99.90;;;;;;5037343;28;20624;-65
2021/07/20 12:35:13;;;;;;;7.13;6.30;;;23.70;99.90;;;;;;5036996;28;20235;-64
2021/07/20 12:37:57;;;;;;;6.53;5.63;;;23.80;99.90;;;;;;5033235;28;20622;-65
2021/07/20 12:40:27;;;;;;;9.83;6.50;;;24.00;99.90;;;;;;5038590;28;20750;-66
2021/07/20 12:42:55;;;;;;;7.57;6.70;;;24.20;99.90;;;;;;5039503;28;20729;-64
2021/07/20 12:45:23;;;;;;;7.50;6.27;;;24.40;99.90;;;;;;5037286;28;20279;-65
2021/07/20 12:47:51;;;;;;;8.00;6.60;;;24.70;99.90;;;;;;5042645;28;20238;-66
2021/07/20 12:50:21;;;;;;;8.57;6.53;;;24.70;99.90;;;;;;5045878;28;20803;-64
2021/07/20 12:52:51;;;;;;;8.10;6.87;;;24.60;99.90;;;;;;5039966;28;20773;-64
2021/07/20 12:55:22;;;;;;;8.43;7.27;;;24.40;99.90;;;;;;5042535;28;21037;-64
2021/07/20 12:57:53;;;;;;;8.97;7.10;;;24.30;99.90;;;;;;5040016;28;20232;-63
2021/07/20 13:00:36;;;;;;;8.10;6.73;;;24.00;99.90;;;;;;5040792;28;20274;-64
2021/07/20 13:03:08;;;;;;;7.87;6.83;;;23.80;99.90;;;;;;5031451;28;20342;-64
2021/07/20 13:05:41;;;;;;;8.20;6.30;;;23.70;99.90;;;;;;5035315;28;20251;-64
2021/07/20 13:08:16;;;;;;;8.13;6.73;;;23.80;99.90;;;;;;5035261;28;20740;-65
2021/07/20 13:10:46;;;;;;;7.13;6.40;;;24.20;99.90;;;;;;5029774;28;21301;-65
2021/07/20 13:13:14;;;;;;;9.67;7.47;;;24.40;99.90;;;;;;5033747;28;20264;-65
2021/07/20 13:15:47;;;;;;;8.53;7.13;;;24.00;99.90;;;;;;5032583;28;20280;-64
2021/07/20 13:18:23;;;;;;;8.90;7.73;;;24.00;99.90;;;;;;5034801;28;20232;-64
2021/07/20 13:21:00;;;;;;;9.53;7.53;;;24.00;99.90;;;;;;5034775;28;20243;-64
2021/07/20 13:23:33;;;;;;;8.33;7.43;;;23.80;99.90;;;;;;5034737;28;20324;-64
2021/07/20 13:26:01;;;;;;;8.53;7.67;;;23.80;99.90;;;;;;5034328;28;20337;-65